sensor_id;sensor_type;location;lat;lon;timestamp;P1;durP1;ratioP1;P2;durP2;ratioP2
45564;SDS011;31280;40.408;17.282;2022-11-15T00:01:09;19.65;;;10.75;;
45564;SDS011;31280;40.408;17.282;2022-11-15T00:03:39;16.40;;;10.02;;
45564;SDS011;31280;40.408;17.282;2022-11-15T00:06:05;14.70;;;10.18;;
45564;SDS011;31280;40.408;17.282;2022-11-15T00:08:31;13.40;;;9.70;;
45564;SDS011;31280;40.408;17.282;2022-11-15T00:10:58;13.07;;;8.98;;
45564;SDS011;31280;40.408;17.282;2022-11-15T00:13:25;12.25;;;8.85;;
45564;SDS011;31280;40.408;17.282;2022-11-15T00:15:52;13.00;;;8.88;;
45564;SDS011;31280;40.408;17.282;2022-11-15T00:18:18;13.75;;;8.48;;
45564;SDS011;31280;40.408;17.282;2022-11-15T00:20:44;11.02;;;8.00;;
45564;SDS011;31280;40.408;17.282;2022-11-15T00:23:10;12.15;;;7.20;;
45564;SDS011;31280;40.408;17.282;2022-11-15T00:25:36;9.63;;;6.57;;
45564;SDS011;31280;40.408;17.282;2022-11-15T00:28:02;7.15;;;5.47;;
45564;SDS011;31280;40.408;17.282;2022-11-15T00:30:28;8.70;;;5.93;;
45564;SDS011;31280;40.408;17.282;2022-11-15T00:32:54;8.15;;;5.75;;
45564;SDS011;31280;40.408;17.282;2022-11-15T00:35:20;7.45;;;5.20;;
45564;SDS011;31280;40.408;17.282;2022-11-15T00:37:46;9.20;;;5.28;;
45564;SDS011;31280;40.408;17.282;2022-11-15T00:40:13;5.63;;;4.80;;
45564;SDS011;31280;40.408;17.282;2022-11-15T00:42:40;7.22;;;4.63;;
45564;SDS011;31280;40.408;17.282;2022-11-15T00:45:06;6.45;;;4.97;;
45564;SDS011;31280;40.408;17.282;2022-11-15T00:47:33;8.07;;;5.05;;
45564;SDS011;31280;40.408;17.282;2022-11-15T00:49:58;7.20;;;5.18;;
45564;SDS011;31280;40.408;17.282;2022-11-15T00:52:24;6.35;;;5.07;;
45564;SDS011;31280;40.408;17.282;2022-11-15T00:54:50;8.90;;;6.10;;
45564;SDS011;31280;40.408;17.282;2022-11-15T00:57:16;8.48;;;6.43;;
45564;SDS011;31280;40.408;17.282;2022-11-15T00:59:42;9.80;;;6.70;;
45564;SDS011;31280;40.408;17.282;2022-11-15T01:02:07;11.23;;;6.97;;
45564;SDS011;31280;40.408;17.282;2022-11-15T01:04:33;11.52;;;7.50;;
45564;SDS011;31280;40.408;17.282;2022-11-15T01:06:58;10.73;;;7.22;;
45564;SDS011;31280;40.408;17.282;2022-11-15T01:09:24;13.18;;;7.53;;
45564;SDS011;31280;40.408;17.282;2022-11-15T01:11:49;9.10;;;6.82;;
45564;SDS011;31280;40.408;17.282;2022-11-15T01:14:15;9.70;;;6.63;;
45564;SDS011;31280;40.408;17.282;2022-11-15T01:16:41;8.65;;;6.18;;
45564;SDS011;31280;40.408;17.282;2022-11-15T01:19:06;7.28;;;5.05;;
45564;SDS011;31280;40.408;17.282;2022-11-15T01:21:32;5.93;;;4.60;;
45564;SDS011;31280;40.408;17.282;2022-11-15T01:23:58;6.82;;;4.38;;
45564;SDS011;31280;40.408;17.282;2022-11-15T01:26:24;4.82;;;4.00;;
45564;SDS011;31280;40.408;17.282;2022-11-15T01:28:50;4.32;;;3.92;;
45564;SDS011;31280;40.408;17.282;2022-11-15T01:31:19;5.10;;;4.10;;
45564;SDS011;31280;40.408;17.282;2022-11-15T01:33:46;5.72;;;4.50;;
45564;SDS011;31280;40.408;17.282;2022-11-15T01:36:13;8.25;;;4.63;;
45564;SDS011;31280;40.408;17.282;2022-11-15T01:38:41;6.55;;;4.85;;
45564;SDS011;31280;40.408;17.282;2022-11-15T01:41:13;6.47;;;5.25;;
45564;SDS011;31280;40.408;17.282;2022-11-15T01:43:41;6.30;;;5.20;;
45564;SDS011;31280;40.408;17.282;2022-11-15T01:46:22;8.23;;;5.07;;
45564;SDS011;31280;40.408;17.282;2022-11-15T01:48:52;8.20;;;5.40;;
45564;SDS011;31280;40.408;17.282;2022-11-15T01:51:20;7.57;;;5.65;;
45564;SDS011;31280;40.408;17.282;2022-11-15T01:53:49;8.88;;;5.50;;
45564;SDS011;31280;40.408;17.282;2022-11-15T01:56:22;10.05;;;5.25;;
45564;SDS011;31280;40.408;17.282;2022-11-15T01:58:51;6.70;;;5.10;;
45564;SDS011;31280;40.408;17.282;2022-11-15T02:01:18;6.70;;;5.35;;
45564;SDS011;31280;40.408;17.282;2022-11-15T02:06:53;10.75;;;6.43;;
45564;SDS011;31280;40.408;17.282;2022-11-15T02:09:19;10.65;;;7.32;;
45564;SDS011;31280;40.408;17.282;2022-11-15T02:11:45;8.60;;;6.13;;
45564;SDS011;31280;40.408;17.282;2022-11-15T02:14:12;11.57;;;6.88;;
45564;SDS011;31280;40.408;17.282;2022-11-15T02:25:03;10.15;;;7.53;;
45564;SDS011;31280;40.408;17.282;2022-11-15T02:38:46;15.43;;;8.32;;
45564;SDS011;31280;40.408;17.282;2022-11-15T02:41:24;11.02;;;7.25;;
45564;SDS011;31280;40.408;17.282;2022-11-15T02:44:17;10.88;;;7.13;;
45564;SDS011;31280;40.408;17.282;2022-11-15T02:49:37;14.68;;;7.75;;
45564;SDS011;31280;40.408;17.282;2022-11-15T02:52:06;12.02;;;7.00;;
45564;SDS011;31280;40.408;17.282;2022-11-15T02:54:32;10.70;;;7.45;;
45564;SDS011;31280;40.408;17.282;2022-11-15T02:57:01;11.63;;;7.65;;
45564;SDS011;31280;40.408;17.282;2022-11-15T02:59:50;9.68;;;7.13;;
45564;SDS011;31280;40.408;17.282;2022-11-15T03:11:21;9.87;;;6.97;;
45564;SDS011;31280;40.408;17.282;2022-11-15T03:16:44;9.23;;;6.53;;
45564;SDS011;31280;40.408;17.282;2022-11-15T03:22:19;8.97;;;6.70;;
45564;SDS011;31280;40.408;17.282;2022-11-15T03:24:47;10.40;;;6.55;;
45564;SDS011;31280;40.408;17.282;2022-11-15T03:27:19;9.70;;;6.72;;
45564;SDS011;31280;40.408;17.282;2022-11-15T03:29:50;11.32;;;6.88;;
45564;SDS011;31280;40.408;17.282;2022-11-15T03:32:23;10.82;;;6.43;;
45564;SDS011;31280;40.408;17.282;2022-11-15T03:40:18;7.43;;;5.70;;
45564;SDS011;31280;40.408;17.282;2022-11-15T03:42:54;9.65;;;5.68;;
45564;SDS011;31280;40.408;17.282;2022-11-15T03:45:46;8.27;;;5.70;;
45564;SDS011;31280;40.408;17.282;2022-11-15T03:48:26;10.73;;;6.50;;
45564;SDS011;31280;40.408;17.282;2022-11-15T03:50:56;7.80;;;5.93;;
45564;SDS011;31280;40.408;17.282;2022-11-15T03:53:22;7.47;;;5.68;;
45564;SDS011;31280;40.408;17.282;2022-11-15T03:55:48;7.22;;;5.18;;
45564;SDS011;31280;40.408;17.282;2022-11-15T03:58:13;10.15;;;6.38;;
45564;SDS011;31280;40.408;17.282;2022-11-15T04:00:39;7.72;;;5.30;;
45564;SDS011;31280;40.408;17.282;2022-11-15T04:03:04;9.60;;;5.97;;
45564;SDS011;31280;40.408;17.282;2022-11-15T04:05:31;8.07;;;5.10;;
45564;SDS011;31280;40.408;17.282;2022-11-15T04:07:56;6.75;;;5.30;;
45564;SDS011;31280;40.408;17.282;2022-11-15T04:10:22;8.45;;;4.78;;
45564;SDS011;31280;40.408;17.282;2022-11-15T04:12:48;8.82;;;5.15;;
45564;SDS011;31280;40.408;17.282;2022-11-15T04:15:14;8.27;;;5.40;;
45564;SDS011;31280;40.408;17.282;2022-11-15T04:17:51;9.20;;;4.88;;
45564;SDS011;31280;40.408;17.282;2022-11-15T04:23:07;8.75;;;5.00;;
45564;SDS011;31280;40.408;17.282;2022-11-15T04:25:55;7.78;;;4.38;;
45564;SDS011;31280;40.408;17.282;2022-11-15T04:28:23;7.22;;;4.90;;
45564;SDS011;31280;40.408;17.282;2022-11-15T04:30:51;8.88;;;5.03;;
45564;SDS011;31280;40.408;17.282;2022-11-15T04:33:17;12.88;;;6.35;;
45564;SDS011;31280;40.408;17.282;2022-11-15T04:35:43;9.23;;;5.75;;
45564;SDS011;31280;40.408;17.282;2022-11-15T04:38:29;9.35;;;5.35;;
45564;SDS011;31280;40.408;17.282;2022-11-15T04:40:55;9.38;;;4.75;;
45564;SDS011;31280;40.408;17.282;2022-11-15T04:43:21;5.97;;;4.70;;
45564;SDS011;31280;40.408;17.282;2022-11-15T04:45:47;5.95;;;4.00;;
45564;SDS011;31280;40.408;17.282;2022-11-15T04:48:13;7.72;;;4.35;;
45564;SDS011;31280;40.408;17.282;2022-11-15T04:50:38;6.28;;;3.83;;
45564;SDS011;31280;40.408;17.282;2022-11-15T04:53:04;6.03;;;4.20;;
45564;SDS011;31280;40.408;17.282;2022-11-15T04:55:30;5.68;;;4.05;;
45564;SDS011;31280;40.408;17.282;2022-11-15T04:57:59;4.70;;;3.70;;
45564;SDS011;31280;40.408;17.282;2022-11-15T05:00:26;4.95;;;3.45;;
45564;SDS011;31280;40.408;17.282;2022-11-15T05:02:54;3.90;;;3.38;;
45564;SDS011;31280;40.408;17.282;2022-11-15T05:05:39;5.00;;;3.85;;
45564;SDS011;31280;40.408;17.282;2022-11-15T05:08:05;7.88;;;3.90;;
45564;SDS011;31280;40.408;17.282;2022-11-15T05:10:31;4.78;;;3.80;;
45564;SDS011;31280;40.408;17.282;2022-11-15T05:12:56;10.60;;;3.97;;
45564;SDS011;31280;40.408;17.282;2022-11-15T05:15:23;6.22;;;3.17;;
45564;SDS011;31280;40.408;17.282;2022-11-15T05:17:49;5.63;;;3.13;;
45564;SDS011;31280;40.408;17.282;2022-11-15T05:20:15;8.75;;;3.75;;
45564;SDS011;31280;40.408;17.282;2022-11-15T05:22:40;6.25;;;3.60;;
45564;SDS011;31280;40.408;17.282;2022-11-15T05:25:06;5.43;;;3.40;;
45564;SDS011;31280;40.408;17.282;2022-11-15T05:27:33;6.00;;;4.22;;
45564;SDS011;31280;40.408;17.282;2022-11-15T05:29:59;11.90;;;3.78;;
45564;SDS011;31280;40.408;17.282;2022-11-15T05:32:25;5.97;;;3.47;;
45564;SDS011;31280;40.408;17.282;2022-11-15T05:34:51;4.85;;;3.47;;
45564;SDS011;31280;40.408;17.282;2022-11-15T05:37:16;6.55;;;3.63;;
45564;SDS011;31280;40.408;17.282;2022-11-15T05:39:43;7.95;;;4.35;;
45564;SDS011;31280;40.408;17.282;2022-11-15T05:42:14;5.18;;;3.90;;
45564;SDS011;31280;40.408;17.282;2022-11-15T05:44:43;5.47;;;4.07;;
45564;SDS011;31280;40.408;17.282;2022-11-15T05:47:13;6.53;;;4.65;;
45564;SDS011;31280;40.408;17.282;2022-11-15T05:49:50;6.88;;;4.75;;
45564;SDS011;31280;40.408;17.282;2022-11-15T05:52:19;10.75;;;4.32;;
45564;SDS011;31280;40.408;17.282;2022-11-15T05:54:47;4.85;;;4.22;;
45564;SDS011;31280;40.408;17.282;2022-11-15T05:57:13;5.70;;;3.95;;
45564;SDS011;31280;40.408;17.282;2022-11-15T05:59:39;7.20;;;3.83;;
45564;SDS011;31280;40.408;17.282;2022-11-15T06:02:08;8.00;;;3.65;;
45564;SDS011;31280;40.408;17.282;2022-11-15T06:04:35;7.00;;;3.65;;
45564;SDS011;31280;40.408;17.282;2022-11-15T06:07:01;7.55;;;4.30;;
45564;SDS011;31280;40.408;17.282;2022-11-15T06:09:27;6.22;;;4.25;;
45564;SDS011;31280;40.408;17.282;2022-11-15T06:11:52;6.97;;;4.00;;
45564;SDS011;31280;40.408;17.282;2022-11-15T06:14:18;6.90;;;3.45;;
45564;SDS011;31280;40.408;17.282;2022-11-15T06:16:44;7.35;;;4.20;;
45564;SDS011;31280;40.408;17.282;2022-11-15T06:19:10;9.43;;;3.97;;
45564;SDS011;31280;40.408;17.282;2022-11-15T06:21:35;7.93;;;3.60;;
45564;SDS011;31280;40.408;17.282;2022-11-15T06:24:01;7.53;;;4.22;;
45564;SDS011;31280;40.408;17.282;2022-11-15T06:26:27;4.55;;;3.63;;
45564;SDS011;31280;40.408;17.282;2022-11-15T06:28:53;6.72;;;3.42;;
45564;SDS011;31280;40.408;17.282;2022-11-15T06:31:19;6.40;;;3.55;;
45564;SDS011;31280;40.408;17.282;2022-11-15T06:33:44;6.38;;;3.40;;
45564;SDS011;31280;40.408;17.282;2022-11-15T06:36:11;12.50;;;3.90;;
45564;SDS011;31280;40.408;17.282;2022-11-15T06:38:42;6.72;;;3.63;;
45564;SDS011;31280;40.408;17.282;2022-11-15T06:41:09;10.52;;;3.38;;
45564;SDS011;31280;40.408;17.282;2022-11-15T06:43:36;10.50;;;4.53;;
45564;SDS011;31280;40.408;17.282;2022-11-15T06:46:02;12.38;;;3.70;;
45564;SDS011;31280;40.408;17.282;2022-11-15T06:48:30;12.52;;;4.20;;
45564;SDS011;31280;40.408;17.282;2022-11-15T06:50:57;6.80;;;4.22;;
45564;SDS011;31280;40.408;17.282;2022-11-15T06:53:25;6.43;;;4.20;;
45564;SDS011;31280;40.408;17.282;2022-11-15T06:55:57;10.52;;;3.83;;
45564;SDS011;31280;40.408;17.282;2022-11-15T06:58:24;17.25;;;4.57;;
45564;SDS011;31280;40.408;17.282;2022-11-15T07:00:49;11.27;;;5.60;;
45564;SDS011;31280;40.408;17.282;2022-11-15T07:03:15;18.35;;;4.55;;
45564;SDS011;31280;40.408;17.282;2022-11-15T07:05:40;6.47;;;4.10;;
45564;SDS011;31280;40.408;17.282;2022-11-15T07:08:06;21.30;;;4.70;;
45564;SDS011;31280;40.408;17.282;2022-11-15T07:10:32;13.65;;;5.45;;
45564;SDS011;31280;40.408;17.282;2022-11-15T07:12:58;8.57;;;4.70;;
45564;SDS011;31280;40.408;17.282;2022-11-15T07:15:24;7.32;;;4.43;;
45564;SDS011;31280;40.408;17.282;2022-11-15T07:17:51;8.13;;;4.45;;
45564;SDS011;31280;40.408;17.282;2022-11-15T07:20:17;6.53;;;4.45;;
45564;SDS011;31280;40.408;17.282;2022-11-15T07:22:43;9.60;;;4.90;;
45564;SDS011;31280;40.408;17.282;2022-11-15T07:25:12;15.48;;;5.03;;
45564;SDS011;31280;40.408;17.282;2022-11-15T07:27:37;12.90;;;5.30;;
45564;SDS011;31280;40.408;17.282;2022-11-15T07:30:04;12.02;;;5.03;;
45564;SDS011;31280;40.408;17.282;2022-11-15T07:32:30;10.80;;;4.90;;
45564;SDS011;31280;40.408;17.282;2022-11-15T07:34:56;8.80;;;5.13;;
45564;SDS011;31280;40.408;17.282;2022-11-15T07:37:22;12.52;;;5.05;;
45564;SDS011;31280;40.408;17.282;2022-11-15T07:39:48;10.57;;;4.90;;
45564;SDS011;31280;40.408;17.282;2022-11-15T07:42:13;11.43;;;4.78;;
45564;SDS011;31280;40.408;17.282;2022-11-15T07:44:57;8.82;;;4.75;;
45564;SDS011;31280;40.408;17.282;2022-11-15T07:47:23;9.15;;;4.45;;
45564;SDS011;31280;40.408;17.282;2022-11-15T07:49:49;8.45;;;4.68;;
45564;SDS011;31280;40.408;17.282;2022-11-15T07:52:15;9.68;;;4.97;;
45564;SDS011;31280;40.408;17.282;2022-11-15T07:54:41;8.55;;;4.00;;
45564;SDS011;31280;40.408;17.282;2022-11-15T07:57:08;10.15;;;4.18;;
45564;SDS011;31280;40.408;17.282;2022-11-15T07:59:35;9.38;;;4.50;;
45564;SDS011;31280;40.408;17.282;2022-11-15T08:02:01;7.07;;;4.07;;
45564;SDS011;31280;40.408;17.282;2022-11-15T08:04:27;11.45;;;4.20;;
45564;SDS011;31280;40.408;17.282;2022-11-15T08:06:52;7.28;;;3.78;;
45564;SDS011;31280;40.408;17.282;2022-11-15T08:09:18;8.05;;;3.80;;
45564;SDS011;31280;40.408;17.282;2022-11-15T08:11:43;10.45;;;3.63;;
45564;SDS011;31280;40.408;17.282;2022-11-15T08:14:09;8.35;;;3.63;;
45564;SDS011;31280;40.408;17.282;2022-11-15T08:16:35;6.95;;;3.35;;
45564;SDS011;31280;40.408;17.282;2022-11-15T08:19:01;6.72;;;3.97;;
45564;SDS011;31280;40.408;17.282;2022-11-15T08:21:27;7.53;;;2.97;;
45564;SDS011;31280;40.408;17.282;2022-11-15T08:23:52;9.05;;;4.25;;
45564;SDS011;31280;40.408;17.282;2022-11-15T08:26:18;7.80;;;3.40;;
45564;SDS011;31280;40.408;17.282;2022-11-15T08:28:44;10.55;;;3.63;;
45564;SDS011;31280;40.408;17.282;2022-11-15T08:31:14;6.95;;;4.00;;
45564;SDS011;31280;40.408;17.282;2022-11-15T08:33:42;6.53;;;3.20;;
45564;SDS011;31280;40.408;17.282;2022-11-15T08:36:10;8.52;;;3.90;;
45564;SDS011;31280;40.408;17.282;2022-11-15T08:38:38;10.90;;;3.55;;
45564;SDS011;31280;40.408;17.282;2022-11-15T08:41:04;7.35;;;3.25;;
45564;SDS011;31280;40.408;17.282;2022-11-15T08:43:31;7.50;;;3.08;;
45564;SDS011;31280;40.408;17.282;2022-11-15T08:45:57;10.85;;;3.25;;
45564;SDS011;31280;40.408;17.282;2022-11-15T08:48:23;5.25;;;2.95;;
45564;SDS011;31280;40.408;17.282;2022-11-15T08:50:52;9.80;;;2.90;;
45564;SDS011;31280;40.408;17.282;2022-11-15T08:53:19;3.13;;;2.60;;
45564;SDS011;31280;40.408;17.282;2022-11-15T08:55:45;5.60;;;2.95;;
45564;SDS011;31280;40.408;17.282;2022-11-15T08:58:10;5.57;;;2.65;;
45564;SDS011;31280;40.408;17.282;2022-11-15T09:00:36;4.85;;;2.38;;
45564;SDS011;31280;40.408;17.282;2022-11-15T09:03:05;9.00;;;3.00;;
45564;SDS011;31280;40.408;17.282;2022-11-15T09:05:32;5.03;;;2.60;;
45564;SDS011;31280;40.408;17.282;2022-11-15T09:08:00;6.90;;;2.40;;
45564;SDS011;31280;40.408;17.282;2022-11-15T09:10:26;5.95;;;2.75;;
45564;SDS011;31280;40.408;17.282;2022-11-15T09:12:52;4.20;;;2.72;;
45564;SDS011;31280;40.408;17.282;2022-11-15T09:15:18;4.00;;;2.38;;
45564;SDS011;31280;40.408;17.282;2022-11-15T09:17:45;4.95;;;2.63;;
45564;SDS011;31280;40.408;17.282;2022-11-15T09:20:10;7.40;;;3.20;;
45564;SDS011;31280;40.408;17.282;2022-11-15T09:22:36;6.88;;;2.60;;
45564;SDS011;31280;40.408;17.282;2022-11-15T09:25:04;4.65;;;2.58;;
45564;SDS011;31280;40.408;17.282;2022-11-15T09:27:30;3.42;;;2.25;;
45564;SDS011;31280;40.408;17.282;2022-11-15T09:29:56;7.03;;;2.63;;
45564;SDS011;31280;40.408;17.282;2022-11-15T09:32:22;4.40;;;2.25;;
45564;SDS011;31280;40.408;17.282;2022-11-15T09:34:50;4.70;;;2.10;;
45564;SDS011;31280;40.408;17.282;2022-11-15T09:37:16;8.73;;;2.63;;
45564;SDS011;31280;40.408;17.282;2022-11-15T09:39:42;3.72;;;2.00;;
45564;SDS011;31280;40.408;17.282;2022-11-15T09:47:49;2.75;;;1.88;;
45564;SDS011;31280;40.408;17.282;2022-11-15T09:53:01;5.57;;;2.50;;
45564;SDS011;31280;40.408;17.282;2022-11-15T09:58:42;5.18;;;2.10;;
45564;SDS011;31280;40.408;17.282;2022-11-15T10:01:14;5.00;;;1.92;;
45564;SDS011;31280;40.408;17.282;2022-11-15T10:03:44;4.95;;;2.00;;
45564;SDS011;31280;40.408;17.282;2022-11-15T10:06:22;9.32;;;2.47;;
45564;SDS011;31280;40.408;17.282;2022-11-15T10:11:54;6.70;;;2.13;;
45564;SDS011;31280;40.408;17.282;2022-11-15T10:14:21;4.82;;;2.72;;
45564;SDS011;31280;40.408;17.282;2022-11-15T10:22:48;3.22;;;1.98;;
45564;SDS011;31280;40.408;17.282;2022-11-15T10:25:23;3.75;;;1.80;;
45564;SDS011;31280;40.408;17.282;2022-11-15T10:27:55;5.65;;;2.30;;
45564;SDS011;31280;40.408;17.282;2022-11-15T10:30:39;4.80;;;2.28;;
45564;SDS011;31280;40.408;17.282;2022-11-15T10:33:11;6.57;;;2.33;;
45564;SDS011;31280;40.408;17.282;2022-11-15T10:35:46;4.70;;;2.78;;
45564;SDS011;31280;40.408;17.282;2022-11-15T10:38:12;4.85;;;2.70;;
45564;SDS011;31280;40.408;17.282;2022-11-15T10:40:39;7.22;;;1.85;;
45564;SDS011;31280;40.408;17.282;2022-11-15T10:45:35;5.07;;;1.30;;
45564;SDS011;31280;40.408;17.282;2022-11-15T10:50:40;4.20;;;1.33;;
45564;SDS011;31280;40.408;17.282;2022-11-15T10:53:21;4.15;;;1.55;;
45564;SDS011;31280;40.408;17.282;2022-11-15T10:56:03;3.28;;;2.00;;
45564;SDS011;31280;40.408;17.282;2022-11-15T10:58:42;4.78;;;2.08;;
45564;SDS011;31280;40.408;17.282;2022-11-15T11:03:46;4.97;;;2.83;;
45564;SDS011;31280;40.408;17.282;2022-11-15T11:06:52;5.05;;;2.70;;
45564;SDS011;31280;40.408;17.282;2022-11-15T11:09:24;5.63;;;1.88;;
45564;SDS011;31280;40.408;17.282;2022-11-15T11:16:54;8.30;;;2.60;;
45564;SDS011;31280;40.408;17.282;2022-11-15T11:19:37;4.22;;;2.55;;
45564;SDS011;31280;40.408;17.282;2022-11-15T11:22:26;5.00;;;2.75;;
45564;SDS011;31280;40.408;17.282;2022-11-15T11:36:26;6.70;;;2.25;;
45564;SDS011;31280;40.408;17.282;2022-11-15T11:39:21;1.65;;;1.30;;
45564;SDS011;31280;40.408;17.282;2022-11-15T11:41:53;4.57;;;1.70;;
45564;SDS011;31280;40.408;17.282;2022-11-15T11:49:46;3.45;;;1.83;;
45564;SDS011;31280;40.408;17.282;2022-11-15T12:00:46;4.68;;;2.33;;
45564;SDS011;31280;40.408;17.282;2022-11-15T12:03:21;5.32;;;2.50;;
45564;SDS011;31280;40.408;17.282;2022-11-15T12:09:07;8.23;;;1.67;;
45564;SDS011;31280;40.408;17.282;2022-11-15T12:14:21;5.75;;;1.95;;
45564;SDS011;31280;40.408;17.282;2022-11-15T12:16:52;5.35;;;1.75;;
45564;SDS011;31280;40.408;17.282;2022-11-15T12:19:18;5.13;;;2.05;;
45564;SDS011;31280;40.408;17.282;2022-11-15T12:24:29;3.55;;;1.50;;
45564;SDS011;31280;40.408;17.282;2022-11-15T12:29:51;2.70;;;1.50;;
45564;SDS011;31280;40.408;17.282;2022-11-15T12:32:39;7.05;;;2.05;;
45564;SDS011;31280;40.408;17.282;2022-11-15T12:35:21;1.98;;;1.50;;
45564;SDS011;31280;40.408;17.282;2022-11-15T12:37:49;3.80;;;1.40;;
45564;SDS011;31280;40.408;17.282;2022-11-15T12:40:27;5.80;;;1.95;;
45564;SDS011;31280;40.408;17.282;2022-11-15T12:42:59;5.20;;;1.50;;
45564;SDS011;31280;40.408;17.282;2022-11-15T12:45:36;2.80;;;1.58;;
45564;SDS011;31280;40.408;17.282;2022-11-15T12:58:55;4.03;;;1.27;;
45564;SDS011;31280;40.408;17.282;2022-11-15T13:04:14;6.70;;;1.65;;
45564;SDS011;31280;40.408;17.282;2022-11-15T13:06:48;3.50;;;1.40;;
45564;SDS011;31280;40.408;17.282;2022-11-15T13:17:51;4.90;;;1.35;;
45564;SDS011;31280;40.408;17.282;2022-11-15T13:28:01;5.55;;;1.15;;
45564;SDS011;31280;40.408;17.282;2022-11-15T13:35:50;1.42;;;0.98;;
45564;SDS011;31280;40.408;17.282;2022-11-15T13:38:19;4.88;;;1.80;;
45564;SDS011;31280;40.408;17.282;2022-11-15T13:40:52;5.18;;;1.33;;
45564;SDS011;31280;40.408;17.282;2022-11-15T13:46:07;2.70;;;1.20;;
45564;SDS011;31280;40.408;17.282;2022-11-15T13:48:42;2.38;;;1.52;;
45564;SDS011;31280;40.408;17.282;2022-11-15T13:51:17;2.90;;;1.20;;
45564;SDS011;31280;40.408;17.282;2022-11-15T13:54:00;3.50;;;1.10;;
45564;SDS011;31280;40.408;17.282;2022-11-15T13:56:49;3.10;;;1.15;;
45564;SDS011;31280;40.408;17.282;2022-11-15T13:59:27;4.88;;;1.10;;
45564;SDS011;31280;40.408;17.282;2022-11-15T14:01:54;4.32;;;1.25;;
45564;SDS011;31280;40.408;17.282;2022-11-15T14:04:22;7.38;;;1.50;;
45564;SDS011;31280;40.408;17.282;2022-11-15T14:06:51;3.45;;;1.40;;
45564;SDS011;31280;40.408;17.282;2022-11-15T14:09:29;2.65;;;1.63;;
45564;SDS011;31280;40.408;17.282;2022-11-15T14:11:56;3.08;;;1.23;;
45564;SDS011;31280;40.408;17.282;2022-11-15T14:14:26;2.45;;;1.40;;
45564;SDS011;31280;40.408;17.282;2022-11-15T14:16:57;5.53;;;1.20;;
45564;SDS011;31280;40.408;17.282;2022-11-15T14:24:35;3.42;;;1.02;;
45564;SDS011;31280;40.408;17.282;2022-11-15T14:29:51;2.22;;;1.10;;
45564;SDS011;31280;40.408;17.282;2022-11-15T14:32:18;3.03;;;1.10;;
45564;SDS011;31280;40.408;17.282;2022-11-15T14:34:46;4.38;;;1.10;;
45564;SDS011;31280;40.408;17.282;2022-11-15T14:37:21;3.20;;;1.17;;
45564;SDS011;31280;40.408;17.282;2022-11-15T14:39:48;6.10;;;2.42;;
45564;SDS011;31280;40.408;17.282;2022-11-15T14:42:14;5.47;;;2.10;;
45564;SDS011;31280;40.408;17.282;2022-11-15T14:44:40;7.18;;;2.50;;
45564;SDS011;31280;40.408;17.282;2022-11-15T14:47:06;8.30;;;2.67;;
45564;SDS011;31280;40.408;17.282;2022-11-15T14:49:32;64.13;;;7.82;;
45564;SDS011;31280;40.408;17.282;2022-11-15T14:51:58;32.92;;;5.18;;
45564;SDS011;31280;40.408;17.282;2022-11-15T14:54:24;25.33;;;5.60;;
45564;SDS011;31280;40.408;17.282;2022-11-15T14:56:50;21.35;;;5.05;;
45564;SDS011;31280;40.408;17.282;2022-11-15T14:59:16;13.65;;;2.83;;
45564;SDS011;31280;40.408;17.282;2022-11-15T15:01:42;8.40;;;2.95;;
45564;SDS011;31280;40.408;17.282;2022-11-15T15:04:09;29.40;;;6.43;;
45564;SDS011;31280;40.408;17.282;2022-11-15T15:06:35;9.27;;;2.88;;
45564;SDS011;31280;40.408;17.282;2022-11-15T15:09:02;16.90;;;3.53;;
45564;SDS011;31280;40.408;17.282;2022-11-15T15:11:29;6.82;;;2.22;;
45564;SDS011;31280;40.408;17.282;2022-11-15T15:13:57;10.35;;;2.13;;
45564;SDS011;31280;40.408;17.282;2022-11-15T15:16:25;12.77;;;3.25;;
45564;SDS011;31280;40.408;17.282;2022-11-15T15:18:51;9.18;;;2.83;;
45564;SDS011;31280;40.408;17.282;2022-11-15T15:21:21;15.07;;;2.33;;
45564;SDS011;31280;40.408;17.282;2022-11-15T15:23:52;10.40;;;1.92;;
45564;SDS011;31280;40.408;17.282;2022-11-15T15:26:22;7.82;;;1.58;;
45564;SDS011;31280;40.408;17.282;2022-11-15T15:28:48;2.80;;;1.52;;
45564;SDS011;31280;40.408;17.282;2022-11-15T15:31:16;3.80;;;2.28;;
45564;SDS011;31280;40.408;17.282;2022-11-15T15:33:43;5.60;;;1.80;;
45564;SDS011;31280;40.408;17.282;2022-11-15T15:36:10;3.10;;;1.50;;
45564;SDS011;31280;40.408;17.282;2022-11-15T15:38:42;7.43;;;1.88;;
45564;SDS011;31280;40.408;17.282;2022-11-15T15:41:11;8.73;;;2.38;;
45564;SDS011;31280;40.408;17.282;2022-11-15T15:43:38;4.50;;;2.20;;
45564;SDS011;31280;40.408;17.282;2022-11-15T15:46:04;4.30;;;2.00;;
45564;SDS011;31280;40.408;17.282;2022-11-15T15:48:35;6.20;;;2.60;;
45564;SDS011;31280;40.408;17.282;2022-11-15T15:51:02;10.07;;;2.70;;
45564;SDS011;31280;40.408;17.282;2022-11-15T15:53:28;12.27;;;3.47;;
45564;SDS011;31280;40.408;17.282;2022-11-15T15:55:54;15.10;;;4.13;;
45564;SDS011;31280;40.408;17.282;2022-11-15T15:58:20;13.48;;;3.55;;
45564;SDS011;31280;40.408;17.282;2022-11-15T16:00:45;5.28;;;3.60;;
45564;SDS011;31280;40.408;17.282;2022-11-15T16:03:11;7.57;;;3.63;;
45564;SDS011;31280;40.408;17.282;2022-11-15T16:05:37;9.43;;;3.72;;
45564;SDS011;31280;40.408;17.282;2022-11-15T16:08:02;8.48;;;3.90;;
45564;SDS011;31280;40.408;17.282;2022-11-15T16:10:30;14.07;;;4.57;;
45564;SDS011;31280;40.408;17.282;2022-11-15T16:12:57;5.82;;;3.85;;
45564;SDS011;31280;40.408;17.282;2022-11-15T16:15:25;6.78;;;4.00;;
45564;SDS011;31280;40.408;17.282;2022-11-15T16:17:53;10.85;;;4.90;;
45564;SDS011;31280;40.408;17.282;2022-11-15T16:23:03;9.05;;;5.03;;
45564;SDS011;31280;40.408;17.282;2022-11-15T16:25:32;12.45;;;4.55;;
45564;SDS011;31280;40.408;17.282;2022-11-15T16:28:02;11.50;;;5.03;;
45564;SDS011;31280;40.408;17.282;2022-11-15T16:30:28;15.65;;;5.78;;
45564;SDS011;31280;40.408;17.282;2022-11-15T16:32:53;7.93;;;5.50;;
45564;SDS011;31280;40.408;17.282;2022-11-15T16:35:19;9.63;;;5.47;;
45564;SDS011;31280;40.408;17.282;2022-11-15T16:37:45;9.65;;;5.40;;
45564;SDS011;31280;40.408;17.282;2022-11-15T16:40:17;8.70;;;5.35;;
45564;SDS011;31280;40.408;17.282;2022-11-15T16:42:49;10.10;;;4.90;;
45564;SDS011;31280;40.408;17.282;2022-11-15T16:45:14;10.15;;;5.05;;
45564;SDS011;31280;40.408;17.282;2022-11-15T16:47:40;11.20;;;6.18;;
45564;SDS011;31280;40.408;17.282;2022-11-15T16:50:08;14.57;;;7.13;;
45564;SDS011;31280;40.408;17.282;2022-11-15T16:52:50;17.30;;;7.65;;
45564;SDS011;31280;40.408;17.282;2022-11-15T16:55:17;13.82;;;8.25;;
45564;SDS011;31280;40.408;17.282;2022-11-15T16:57:42;8.88;;;6.10;;
45564;SDS011;31280;40.408;17.282;2022-11-15T17:00:10;11.00;;;6.80;;
45564;SDS011;31280;40.408;17.282;2022-11-15T17:02:37;12.63;;;6.57;;
45564;SDS011;31280;40.408;17.282;2022-11-15T17:05:03;10.18;;;6.72;;
45564;SDS011;31280;40.408;17.282;2022-11-15T17:07:29;10.20;;;6.28;;
45564;SDS011;31280;40.408;17.282;2022-11-15T17:09:54;15.07;;;6.25;;
45564;SDS011;31280;40.408;17.282;2022-11-15T17:12:20;16.05;;;6.18;;
45564;SDS011;31280;40.408;17.282;2022-11-15T17:14:46;10.32;;;5.97;;
45564;SDS011;31280;40.408;17.282;2022-11-15T17:17:11;10.90;;;6.07;;
45564;SDS011;31280;40.408;17.282;2022-11-15T17:19:37;21.05;;;9.63;;
45564;SDS011;31280;40.408;17.282;2022-11-15T17:22:03;17.35;;;8.80;;
45564;SDS011;31280;40.408;17.282;2022-11-15T17:24:29;14.95;;;9.30;;
45564;SDS011;31280;40.408;17.282;2022-11-15T17:26:54;18.45;;;10.13;;